createdAt,value
2024-01-05T00:00:34.015Z,6.800
2024-01-05T00:01:33.822Z,7.300
2024-01-05T00:02:33.122Z,6.900
2024-01-05T00:03:33.813Z,6.900
2024-01-05T00:04:33.597Z,7.100
2024-01-05T00:05:34.261Z,7.200
2024-01-05T00:06:33.991Z,6.200
2024-01-05T00:07:33.394Z,6.500
2024-01-05T00:08:33.590Z,6.100
2024-01-05T00:09:34.287Z,6.700
2024-01-05T00:10:33.798Z,6.100
2024-01-05T00:11:34.095Z,6.100
2024-01-05T00:12:33.622Z,5.900
2024-01-05T00:13:33.881Z,5.900
2024-01-05T00:14:33.112Z,5.700
2024-01-05T00:15:34.019Z,5.600
2024-01-05T00:16:33.578Z,5.900
2024-01-05T00:17:33.914Z,4.900
2024-01-05T00:18:33.693Z,5.500
2024-01-05T00:19:34.224Z,6.000
2024-01-05T00:20:34.086Z,5.500
2024-01-05T00:21:34.002Z,5.300
2024-01-05T00:22:33.215Z,6.300
2024-01-05T00:23:33.409Z,6.200
2024-01-05T00:24:34.123Z,6.000
2024-01-05T00:25:33.552Z,6.100
2024-01-05T00:26:33.823Z,6.000
2024-01-05T00:27:34.770Z,5.500
2024-01-05T00:28:34.003Z,6.500
2024-01-05T00:29:33.212Z,6.000
2024-01-05T00:30:34.101Z,5.800
2024-01-05T00:31:33.815Z,5.400
2024-01-05T00:34:34.718Z,5.900
2024-01-05T00:35:33.502Z,5.200
2024-01-05T00:36:34.100Z,6.000
2024-01-05T00:37:33.592Z,5.400
2024-01-05T00:38:33.850Z,5.700
2024-01-05T00:39:33.383Z,5.400
2024-01-05T00:40:33.708Z,5.500
2024-01-05T00:41:33.968Z,5.200
2024-01-05T00:43:33.871Z,5.100
2024-01-05T00:44:33.053Z,5.500
2024-01-05T00:45:33.476Z,5.200
2024-01-05T00:46:33.781Z,5.300
2024-01-05T00:47:34.283Z,5.100
2024-01-05T00:48:34.572Z,5.500
2024-01-05T00:50:34.072Z,4.900
2024-01-05T00:51:33.614Z,4.900
2024-01-05T00:52:34.121Z,4.400
2024-01-05T00:53:33.472Z,4.500
2024-01-05T00:54:34.179Z,4.800
2024-01-05T00:55:33.701Z,4.900
2024-01-05T00:56:33.967Z,4.500
2024-01-05T00:57:33.550Z,4.900
2024-01-05T00:58:33.894Z,4.300
2024-01-05T00:59:33.144Z,4.200
2024-01-05T01:00:34.330Z,4.500
2024-01-05T01:01:34.311Z,4.300
2024-01-05T01:02:33.590Z,4.300
2024-01-05T01:03:34.540Z,4.300
2024-01-05T01:04:35.085Z,4.500
2024-01-05T01:05:33.971Z,4.400
2024-01-05T01:06:33.440Z,4.800
2024-01-05T01:07:34.040Z,5.200
2024-01-05T01:08:33.522Z,4.800
2024-01-05T01:09:34.142Z,5.000
2024-01-05T01:10:33.466Z,5.300
2024-01-05T01:11:36.964Z,4.400
2024-01-05T01:12:33.303Z,4.700
2024-01-05T01:13:33.683Z,4.600
2024-01-05T01:14:33.926Z,4.600
2024-01-05T01:15:33.492Z,4.500
2024-01-05T01:16:33.784Z,4.600
2024-01-05T01:17:34.851Z,4.600
2024-01-05T01:18:33.887Z,4.900
2024-01-05T01:19:34.194Z,4.500
2024-01-05T01:20:33.566Z,4.500
2024-01-05T01:21:34.094Z,4.600
2024-01-05T01:22:33.430Z,5.100
2024-01-05T01:23:33.687Z,5.000
2024-01-05T01:24:34.374Z,4.600
2024-01-05T01:25:33.689Z,4.300
2024-01-05T01:26:33.950Z,3.700
2024-01-05T01:27:33.574Z,4.300
2024-01-05T01:28:33.973Z,4.300
2024-01-05T01:29:33.220Z,4.300
2024-01-05T01:30:34.126Z,4.800
2024-01-05T01:31:33.897Z,4.300
2024-01-05T01:32:33.391Z,4.300
2024-01-05T01:33:34.809Z,4.500
2024-01-05T01:34:33.736Z,4.900
2024-01-05T01:35:34.248Z,4.100
2024-01-05T01:36:33.995Z,4.700
2024-01-05T01:37:33.385Z,4.400
2024-01-05T01:38:33.716Z,3.900
2024-01-05T01:39:34.436Z,4.200
2024-01-05T01:40:33.812Z,4.300
2024-01-05T01:41:34.211Z,4.200
2024-01-05T01:42:34.263Z,4.100
2024-01-05T01:43:34.169Z,4.500
2024-01-05T01:44:33.456Z,4.400
2024-01-05T01:45:34.058Z,4.400
2024-01-05T01:46:33.482Z,4.200
2024-01-05T01:47:33.929Z,4.200
2024-01-05T01:48:34.515Z,4.300
2024-01-05T01:49:34.463Z,4.600
2024-01-05T01:50:33.739Z,4.200
2024-01-05T01:51:34.422Z,4.400
2024-01-05T01:52:33.842Z,4.000
2024-01-05T01:53:33.169Z,4.000
2024-01-05T01:54:37.479Z,4.300
2024-01-05T01:55:33.832Z,4.300
2024-01-05T01:56:34.050Z,4.200
2024-01-05T01:59:34.063Z,3.900
2024-01-05T02:00:33.656Z,3.900
2024-01-05T02:01:34.166Z,3.900
2024-01-05T02:02:33.364Z,3.600
2024-01-05T02:03:34.040Z,3.800
2024-01-05T02:04:34.579Z,3.400
2024-01-05T02:06:34.084Z,3.700
2024-01-05T02:07:33.325Z,3.600
2024-01-05T02:08:33.609Z,3.800
2024-01-05T02:09:34.317Z,3.700
2024-01-05T02:10:33.606Z,3.800
2024-01-05T02:11:33.915Z,3.700
2024-01-05T02:15:00.264Z,3.400
2024-01-05T02:16:49.396Z,3.300
2024-01-05T02:17:48.387Z,3.800
2024-01-05T02:18:48.771Z,3.900
2024-01-05T02:19:47.705Z,3.700
2024-01-05T02:20:47.160Z,4.000
2024-01-05T02:21:47.696Z,3.500
2024-01-05T02:22:47.937Z,3.500
2024-01-05T02:23:47.202Z,2.800
2024-01-05T02:24:47.562Z,3.500
2024-01-05T02:25:47.889Z,3.100
2024-01-05T02:26:48.876Z,3.600
2024-01-05T02:27:47.548Z,3.200
2024-01-05T02:28:47.762Z,3.000
2024-01-05T02:29:48.030Z,3.100
2024-01-05T02:30:47.839Z,3.000
2024-01-05T02:31:47.468Z,3.800
2024-01-05T02:32:47.897Z,3.400
2024-01-05T02:33:48.571Z,3.100
2024-01-05T02:34:47.373Z,3.100
2024-01-05T02:35:47.824Z,3.100
2024-01-05T02:36:48.817Z,3.300
2024-01-05T02:38:47.374Z,3.100
2024-01-05T02:39:47.781Z,3.700
2024-01-05T02:40:48.088Z,3.400
2024-01-05T02:41:47.400Z,3.300
2024-01-05T02:42:47.785Z,3.300
2024-01-05T02:43:48.077Z,3.000
2024-01-05T02:44:47.361Z,3.300
2024-01-05T02:45:47.991Z,3.800
2024-01-05T02:46:47.971Z,3.700
2024-01-05T02:47:47.576Z,3.600
2024-01-05T02:48:48.315Z,3.400
2024-01-05T02:49:48.690Z,3.200
2024-01-05T02:50:47.233Z,3.300
2024-01-05T02:51:48.025Z,3.900
2024-01-05T02:52:47.278Z,3.200
2024-01-05T02:53:47.579Z,3.300
2024-01-05T02:54:47.957Z,3.600
2024-01-05T02:55:47.245Z,3.300
2024-01-05T02:56:48.258Z,3.100
2024-01-05T02:57:47.610Z,3.700
2024-01-05T02:58:48.005Z,3.100
2024-01-05T02:59:47.206Z,3.800
2024-01-05T03:00:48.333Z,3.500
2024-01-05T03:02:47.210Z,3.200
2024-01-05T03:03:51.414Z,3.400
2024-01-05T03:04:48.029Z,3.200
2024-01-05T03:06:48.530Z,3.900
2024-01-05T03:07:47.782Z,3.500
2024-01-05T03:08:48.015Z,4.100
2024-01-05T03:11:47.926Z,3.400
2024-01-05T03:12:47.236Z,3.800
2024-01-05T03:13:47.577Z,3.500
2024-01-05T03:14:47.946Z,3.100
2024-01-05T03:15:47.565Z,3.400
2024-01-05T03:16:48.768Z,3.100
2024-01-05T03:18:48.520Z,3.000
2024-01-05T03:19:48.622Z,3.300
2024-01-05T03:20:48.097Z,2.800
2024-01-05T03:21:47.515Z,3.300
2024-01-05T03:22:47.753Z,3.300
2024-01-05T03:23:48.043Z,3.200
2024-01-05T03:24:47.274Z,3.600
2024-01-05T03:25:47.768Z,3.300
2024-01-05T03:26:48.792Z,3.300
2024-01-05T03:27:48.349Z,2.800
2024-01-05T03:28:47.619Z,3.300
2024-01-05T03:29:47.894Z,2.900
2024-01-05T03:32:47.968Z,2.900
2024-01-05T03:33:48.440Z,2.800
2024-01-05T03:34:48.277Z,2.400
2024-01-05T03:35:47.566Z,2.900
2024-01-05T03:36:49.575Z,3.200
2024-01-05T03:37:47.806Z,3.400
2024-01-05T03:38:48.293Z,3.400
2024-01-05T03:39:47.699Z,3.000
2024-01-05T03:40:47.995Z,2.400
2024-01-05T03:41:47.311Z,2.700
2024-01-05T03:42:48.128Z,2.500
2024-01-05T03:43:47.334Z,2.800
2024-01-05T03:44:47.640Z,2.900
2024-01-05T03:45:48.326Z,2.800
2024-01-05T03:46:48.372Z,2.700
2024-01-05T03:47:47.929Z,2.900
2024-01-05T03:48:48.387Z,3.200
2024-01-05T03:49:48.915Z,2.500
2024-01-05T03:50:47.297Z,2.700
2024-01-05T03:51:47.703Z,2.600
2024-01-05T03:52:48.025Z,2.700
2024-01-05T03:53:47.238Z,3.000
2024-01-05T03:54:47.551Z,2.800
2024-01-05T03:55:47.857Z,2.900
2024-01-05T03:56:47.912Z,2.300
2024-01-05T03:57:47.319Z,2.600
2024-01-05T03:58:47.632Z,2.800
2024-01-05T03:59:47.922Z,2.800
2024-01-05T04:00:48.074Z,2.600
2024-01-05T04:01:47.561Z,2.700
2024-01-05T04:02:48.476Z,2.800
2024-01-05T04:03:49.064Z,2.600
2024-01-05T04:04:48.294Z,2.600
2024-01-05T04:05:48.314Z,2.600
2024-01-05T04:06:49.799Z,2.900
2024-01-05T04:07:47.215Z,2.900
2024-01-05T04:08:47.413Z,2.500
2024-01-05T04:09:47.808Z,3.000
2024-01-05T04:10:48.203Z,2.900
2024-01-05T04:12:48.088Z,2.600
2024-01-05T04:13:47.408Z,2.600
2024-01-05T04:14:47.632Z,3.100
2024-01-05T04:15:49.730Z,3.500
2024-01-05T04:16:48.828Z,3.100
2024-01-05T04:17:47.373Z,3.200
2024-01-05T04:18:48.572Z,3.400
2024-01-05T04:19:48.693Z,3.400
2024-01-05T04:20:47.918Z,3.400
2024-01-05T04:22:47.774Z,2.800
2024-01-05T04:23:48.117Z,3.200
2024-01-05T04:24:47.552Z,2.400
2024-01-05T04:25:47.802Z,2.800
2024-01-05T04:26:48.755Z,2.600
2024-01-05T04:27:47.277Z,2.500
2024-01-05T04:28:47.575Z,2.500
2024-01-05T04:29:47.907Z,2.800
2024-01-05T04:30:47.900Z,3.000
2024-01-05T04:31:47.402Z,3.400
2024-01-05T04:32:48.359Z,2.900
2024-01-05T04:33:48.656Z,2.600
2024-01-05T04:34:47.836Z,2.700
2024-01-05T04:35:47.148Z,3.000
2024-01-05T04:36:48.046Z,3.400
2024-01-05T04:37:47.427Z,3.300
2024-01-05T04:38:47.966Z,3.200
2024-01-05T04:39:47.574Z,3.300
2024-01-05T04:40:47.831Z,3.500
2024-01-05T04:41:47.158Z,2.900
2024-01-05T04:42:47.744Z,3.200
2024-01-05T04:43:48.026Z,2.800
2024-01-05T04:44:47.254Z,2.600
2024-01-05T04:45:48.098Z,3.100
2024-01-05T04:46:48.780Z,3.000
2024-01-05T04:47:48.241Z,3.400
2024-01-05T04:48:48.306Z,2.700
2024-01-05T04:49:47.989Z,3.200
2024-01-05T04:52:47.467Z,3.200
2024-01-05T04:53:47.863Z,2.900
2024-01-05T04:54:47.303Z,3.200
2024-01-05T04:55:47.565Z,3.400
2024-01-05T04:56:47.831Z,3.200
2024-01-05T04:57:50.720Z,3.200
2024-01-05T04:58:48.000Z,3.000
2024-01-05T04:59:47.217Z,3.200
2024-01-05T05:00:48.210Z,3.100
2024-01-05T05:01:48.614Z,2.700
2024-01-05T05:03:48.328Z,2.600
2024-01-05T05:04:49.517Z,2.900
2024-01-05T05:07:47.498Z,3.000
2024-01-05T05:08:47.843Z,3.400
2024-01-05T05:09:47.292Z,2.900
2024-01-05T05:10:47.729Z,3.000
2024-01-05T05:11:48.156Z,3.200
2024-01-05T05:12:47.605Z,2.700
2024-01-05T05:13:47.814Z,2.900
2024-01-05T05:14:48.068Z,3.100
2024-01-05T05:15:47.851Z,4.300
2024-01-05T05:16:47.144Z,3.700
2024-01-05T05:17:48.032Z,3.100
2024-01-05T05:18:49.134Z,2.800
2024-01-05T05:19:48.048Z,2.700
2024-01-05T05:20:47.526Z,3.200
2024-01-05T05:21:48.949Z,3.200
2024-01-05T05:22:47.223Z,3.100
2024-01-05T05:23:47.477Z,3.100
2024-01-05T05:24:47.826Z,2.800
2024-01-05T05:25:48.293Z,2.900
2024-01-05T05:26:47.543Z,2.800
2024-01-05T05:27:48.213Z,3.200
2024-01-05T05:28:47.450Z,2.800
2024-01-05T05:29:47.674Z,2.900
2024-01-05T05:30:48.793Z,3.200
2024-01-05T05:31:48.250Z,2.500
2024-01-05T05:32:47.742Z,2.900
2024-01-05T05:33:48.222Z,3.300
2024-01-05T05:34:48.496Z,3.000
2024-01-05T05:35:47.883Z,2.700
2024-01-05T05:36:47.358Z,3.300
2024-01-05T05:37:47.567Z,3.000
2024-01-05T05:38:47.719Z,3.400
2024-01-05T05:39:48.161Z,3.400
2024-01-05T05:40:47.421Z,3.100
2024-01-05T05:41:48.676Z,3.000
2024-01-05T05:43:47.439Z,3.100
2024-01-05T05:44:47.647Z,3.300
2024-01-05T05:45:48.245Z,3.400
2024-01-05T05:46:47.470Z,3.200
2024-01-05T05:48:49.066Z,3.300
2024-01-05T05:49:48.239Z,3.400
2024-01-05T05:50:47.780Z,3.600
2024-01-05T05:51:48.691Z,3.200
2024-01-05T05:53:47.157Z,3.400
2024-01-05T05:54:47.737Z,3.700
2024-01-05T05:55:47.908Z,3.300
2024-01-05T05:56:47.122Z,3.400
2024-01-05T05:57:47.786Z,3.600
2024-01-05T05:58:48.123Z,3.500
2024-01-05T05:59:47.445Z,3.100
2024-01-05T06:00:48.228Z,3.700
2024-01-05T06:01:48.443Z,3.200
2024-01-05T06:02:47.712Z,3.200
2024-01-05T06:03:48.446Z,3.700
2024-01-05T06:04:48.118Z,3.400
2024-01-05T06:05:47.562Z,3.800
2024-01-05T06:06:48.283Z,3.700
2024-01-05T06:07:47.548Z,3.800
2024-01-05T06:08:47.755Z,3.400
2024-01-05T06:09:48.335Z,3.400
2024-01-05T06:10:47.551Z,3.100
2024-01-05T06:11:48.750Z,3.900
2024-01-05T06:12:47.394Z,3.500
2024-01-05T06:14:47.708Z,3.600
2024-01-05T06:15:48.307Z,3.400
2024-01-05T06:16:47.564Z,3.600
2024-01-05T06:17:48.200Z,3.800
2024-01-05T06:18:48.571Z,3.800
2024-01-05T06:19:48.539Z,3.800
2024-01-05T06:20:47.960Z,4.000
2024-01-05T06:21:47.866Z,3.900
2024-01-05T06:22:47.671Z,4.100
2024-01-05T06:23:48.069Z,3.700
2024-01-05T06:24:47.748Z,3.800
2024-01-05T06:25:47.992Z,4.000
2024-01-05T06:26:47.292Z,4.000
2024-01-05T06:27:51.965Z,4.200
2024-01-05T06:28:47.180Z,4.300
2024-01-05T06:29:47.485Z,3.900
2024-01-05T06:30:48.512Z,3.900
2024-01-05T06:31:49.285Z,4.200
2024-01-05T06:32:47.883Z,4.400
2024-01-05T06:33:48.345Z,3.800
2024-01-05T06:34:48.679Z,4.200
2024-01-05T06:35:48.047Z,4.200
2024-01-05T06:36:47.617Z,4.400
2024-01-05T06:37:47.837Z,3.700
2024-01-05T06:38:48.080Z,4.200
2024-01-05T06:39:47.588Z,3.700
2024-01-05T06:40:47.811Z,3.900
2024-01-05T06:41:48.998Z,4.100
2024-01-05T06:42:47.779Z,3.400
2024-01-05T06:43:47.116Z,3.800
2024-01-05T06:44:47.400Z,3.800
2024-01-05T06:45:48.042Z,4.000
2024-01-05T06:46:47.308Z,3.500
2024-01-05T06:47:47.845Z,3.800
2024-01-05T06:48:48.336Z,4.100
2024-01-05T06:49:49.015Z,3.800
2024-01-05T06:50:48.347Z,3.400
2024-01-05T06:51:49.676Z,4.000
2024-01-05T06:52:47.119Z,3.400
2024-01-05T06:53:47.336Z,3.500
2024-01-05T06:54:47.679Z,3.400
2024-01-05T06:55:47.927Z,3.600
2024-01-05T06:56:47.195Z,3.700
2024-01-05T06:57:47.561Z,3.600
2024-01-05T06:58:47.779Z,4.200
2024-01-05T06:59:48.055Z,4.000
2024-01-05T07:00:48.119Z,3.900
2024-01-05T07:01:48.055Z,4.100
2024-01-05T07:02:47.475Z,3.900
2024-01-05T07:03:48.311Z,4.600
2024-01-05T07:05:48.549Z,4.600
2024-01-05T07:06:48.032Z,4.500
2024-01-05T07:07:47.245Z,4.700
2024-01-05T07:08:47.555Z,4.300
2024-01-05T07:09:47.927Z,3.900
2024-01-05T07:10:47.205Z,4.100
2024-01-05T07:11:48.796Z,4.100
2024-01-05T07:13:47.508Z,4.200
2024-01-05T07:14:49.183Z,3.800
2024-01-05T07:15:47.710Z,4.000
2024-01-05T07:16:48.121Z,3.800
2024-01-05T07:17:47.785Z,3.900
2024-01-05T07:18:48.163Z,3.300
2024-01-05T07:19:47.809Z,3.300
2024-01-05T07:20:48.038Z,3.600
2024-01-05T07:21:48.879Z,3.300
2024-01-05T07:22:47.094Z,3.500
2024-01-05T07:23:47.337Z,3.000
2024-01-05T07:24:47.666Z,3.600
2024-01-05T07:25:50.366Z,3.200
2024-01-05T07:26:47.625Z,3.400
2024-01-05T07:27:47.874Z,3.400
2024-01-05T07:28:47.103Z,3.600
2024-01-05T07:29:47.315Z,3.900
2024-01-05T07:30:47.935Z,3.600
2024-01-05T07:31:47.867Z,3.500
2024-01-05T07:32:48.218Z,3.400
2024-01-05T07:33:48.207Z,3.700
2024-01-05T07:34:47.895Z,3.300
2024-01-05T07:37:47.849Z,3.500
2024-01-05T07:38:48.147Z,3.000
2024-01-05T07:39:47.435Z,4.000
2024-01-05T07:40:47.764Z,3.800
2024-01-05T07:41:48.944Z,4.000
2024-01-05T07:42:47.410Z,5.300
2024-01-05T07:43:47.630Z,4.200
2024-01-05T07:44:47.809Z,4.700
2024-01-05T07:45:50.068Z,4.500
2024-01-05T07:46:47.591Z,5.400
2024-01-05T07:47:48.376Z,4.800
2024-01-05T07:48:48.742Z,3.800
2024-01-05T07:49:47.652Z,3.500
2024-01-05T07:50:48.024Z,3.900
2024-01-05T07:51:52.488Z,4.500
2024-01-05T07:52:47.676Z,3.700
2024-01-05T07:53:47.892Z,3.700
2024-01-05T07:54:47.439Z,4.800
2024-01-05T07:55:47.725Z,3.700
2024-01-05T07:56:48.312Z,3.700
2024-01-05T07:57:51.820Z,3.500
2024-01-05T07:59:47.394Z,4.300
2024-01-05T08:00:48.641Z,4.800
2024-01-05T08:01:47.979Z,3.600
2024-01-05T08:02:47.337Z,3.300
2024-01-05T08:03:48.220Z,3.300
2024-01-05T08:04:47.690Z,3.200
2024-01-05T08:05:52.980Z,3.300
2024-01-05T08:08:47.875Z,3.300
2024-01-05T08:09:47.669Z,3.900
2024-01-05T08:10:47.970Z,3.500
2024-01-05T08:11:48.652Z,3.400
2024-01-05T08:13:47.476Z,4.400
2024-01-05T08:14:47.701Z,3.800
2024-01-05T08:15:48.585Z,3.000
2024-01-05T08:16:47.866Z,3.100
2024-01-05T08:18:48.411Z,3.500
2024-01-05T08:19:48.598Z,3.600
2024-01-05T08:20:47.933Z,3.000
2024-01-05T08:21:48.477Z,3.700
2024-01-05T08:23:47.737Z,3.300
2024-01-05T08:24:48.566Z,2.900
2024-01-05T08:25:48.273Z,2.900
2024-01-05T08:26:47.536Z,3.600
2024-01-05T08:27:48.131Z,3.400
2024-01-05T08:28:47.442Z,3.200
2024-01-05T08:29:47.690Z,3.200
2024-01-05T08:30:48.622Z,3.000
2024-01-05T08:31:49.302Z,3.400
2024-01-05T08:32:48.326Z,3.100
2024-01-05T08:33:48.520Z,3.300
2024-01-05T08:35:47.563Z,3.100
2024-01-05T08:36:48.282Z,4.100
2024-01-05T08:37:48.096Z,3.100
2024-01-05T08:38:47.305Z,3.400
2024-01-05T08:39:47.785Z,3.600
2024-01-05T08:40:48.118Z,3.200
2024-01-05T08:41:47.425Z,3.200
2024-01-05T08:42:48.228Z,2.900
2024-01-05T08:43:48.084Z,3.000
2024-01-05T08:44:47.375Z,3.500
2024-01-05T08:45:48.410Z,3.100
2024-01-05T08:46:47.922Z,3.600
2024-01-05T08:47:47.378Z,3.100
2024-01-05T08:48:48.150Z,3.000
2024-01-05T08:49:47.793Z,3.200
2024-01-05T08:50:47.102Z,2.800
2024-01-05T08:51:47.744Z,2.700
2024-01-05T08:52:48.028Z,2.900
2024-01-05T08:53:47.305Z,2.800
2024-01-05T08:54:51.053Z,3.000
2024-01-05T08:55:47.375Z,3.000
2024-01-05T08:56:47.646Z,3.000
2024-01-05T08:57:48.224Z,3.500
2024-01-05T08:58:47.557Z,3.300
2024-01-05T08:59:47.897Z,3.100
2024-01-05T09:00:47.805Z,2.900
2024-01-05T09:01:51.448Z,3.100
2024-01-05T09:02:47.785Z,3.000
2024-01-05T09:03:47.747Z,3.300
2024-01-05T09:06:48.137Z,3.000
2024-01-05T09:08:48.007Z,3.200
2024-01-05T09:09:47.422Z,2.800
2024-01-05T09:10:47.738Z,3.000
2024-01-05T09:11:47.917Z,3.000
2024-01-05T09:12:47.475Z,3.400
2024-01-05T09:13:48.085Z,3.500
2024-01-05T09:14:47.315Z,3.600
2024-01-05T09:15:48.093Z,3.200
2024-01-05T09:16:47.402Z,3.200
2024-01-05T09:17:47.886Z,3.200
2024-01-05T09:18:48.947Z,3.100
2024-01-05T09:19:47.961Z,3.200
2024-01-05T09:20:47.308Z,3.400
2024-01-05T09:21:47.886Z,3.200
2024-01-05T09:22:47.120Z,2.900
2024-01-05T09:23:47.352Z,3.400
2024-01-05T09:24:47.950Z,3.200
2024-01-05T09:25:52.303Z,3.300
2024-01-05T09:28:47.672Z,3.600
2024-01-05T09:29:47.915Z,2.900
2024-01-05T09:30:48.930Z,3.300
2024-01-05T09:31:48.275Z,2.900
2024-01-05T09:32:47.886Z,3.200
2024-01-05T09:33:48.092Z,3.600
2024-01-05T09:34:48.144Z,3.300
2024-01-05T09:35:47.535Z,3.400
2024-01-05T09:36:47.968Z,3.200
2024-01-05T09:39:48.313Z,3.500
2024-01-05T09:40:47.645Z,3.300
2024-01-05T09:41:47.912Z,2.900
2024-01-05T09:42:47.447Z,3.300
2024-01-05T09:43:47.871Z,3.000
2024-01-05T09:44:47.188Z,2.600
2024-01-05T09:45:47.707Z,3.200
2024-01-05T09:46:47.050Z,2.800
2024-01-05T09:49:01.131Z,2.800
2024-01-05T09:50:48.351Z,3.500
2024-01-05T09:51:47.837Z,3.100
2024-01-05T09:52:47.088Z,3.700
2024-01-05T09:53:51.765Z,3.300
2024-01-05T09:54:48.159Z,2.900
2024-01-05T09:55:47.468Z,2.900
2024-01-05T09:56:47.794Z,3.300
2024-01-05T09:57:48.535Z,3.500
2024-01-05T09:58:47.800Z,3.100
2024-01-05T09:59:52.134Z,3.200
2024-01-05T10:00:47.660Z,3.700
2024-01-05T10:01:47.336Z,3.500
2024-01-05T10:02:47.604Z,3.500
2024-01-05T10:03:48.521Z,2.900
2024-01-05T10:05:47.442Z,3.400
2024-01-05T10:06:48.085Z,3.500
2024-01-05T10:07:47.484Z,2.800
2024-01-05T10:08:47.831Z,3.400
2024-01-05T10:09:48.765Z,3.600
2024-01-05T10:10:48.015Z,3.200
2024-01-05T10:11:50.696Z,2.800
2024-01-05T10:12:48.377Z,2.900
2024-01-05T10:13:47.662Z,3.000
2024-01-05T10:14:47.944Z,2.500
2024-01-05T10:15:47.290Z,2.900
2024-01-05T10:16:47.583Z,2.900
2024-01-05T10:17:48.414Z,3.100
2024-01-05T10:18:48.968Z,2.900
2024-01-05T10:19:47.943Z,3.100
2024-01-05T10:20:47.416Z,2.700
2024-01-05T10:21:48.241Z,2.800
2024-01-05T10:22:47.636Z,3.200
2024-01-05T10:23:48.020Z,3.100
2024-01-05T10:26:47.343Z,3.100
2024-01-05T10:27:48.134Z,3.100
2024-01-05T10:28:47.485Z,2.800
2024-01-05T10:29:48.987Z,3.200
2024-01-05T10:30:47.664Z,2.900
2024-01-05T10:31:48.257Z,2.800
2024-01-05T10:32:47.715Z,3.000
2024-01-05T10:33:48.919Z,3.100
2024-01-05T10:34:48.214Z,3.500
2024-01-05T10:36:47.674Z,3.000
2024-01-05T10:37:48.122Z,3.300
2024-01-05T10:38:47.329Z,3.600
2024-01-05T10:39:47.990Z,3.300
2024-01-05T10:41:51.469Z,3.400
2024-01-05T10:42:48.152Z,3.400
2024-01-05T10:43:47.362Z,3.300
2024-01-05T10:44:47.716Z,3.200
2024-01-05T10:45:48.846Z,3.600
2024-01-05T10:46:47.330Z,3.300
2024-01-05T10:47:50.817Z,3.100
2024-01-05T10:48:47.848Z,3.500
2024-01-05T10:49:47.920Z,3.600
2024-01-05T10:50:48.057Z,3.900
2024-01-05T10:51:47.680Z,3.200
2024-01-05T10:52:47.986Z,3.900
2024-01-05T10:53:47.410Z,3.700
2024-01-05T10:54:47.993Z,3.200
2024-01-05T10:55:47.409Z,3.500
2024-01-05T10:56:47.684Z,3.000
2024-01-05T10:57:48.661Z,3.600
2024-01-05T10:58:47.936Z,3.600
2024-01-05T10:59:47.206Z,3.200
2024-01-05T11:00:48.011Z,3.800
2024-01-05T11:01:47.822Z,3.000
2024-01-05T11:02:48.064Z,3.600
2024-01-05T11:04:47.622Z,4.000
2024-01-05T11:05:48.524Z,3.900
2024-01-05T11:06:48.268Z,3.600
2024-01-05T11:07:47.979Z,3.400
2024-01-05T11:08:47.246Z,3.500
2024-01-05T11:09:47.983Z,3.600
2024-01-05T11:10:47.372Z,3.600
2024-01-05T11:11:47.582Z,3.300
2024-01-05T11:12:48.446Z,3.400
2024-01-05T11:13:48.206Z,3.600
2024-01-05T11:14:47.460Z,3.600
2024-01-05T11:15:48.198Z,3.500
2024-01-05T11:16:47.461Z,3.800
2024-01-05T11:17:48.239Z,4.200
2024-01-05T11:18:49.281Z,3.600
2024-01-05T11:19:48.057Z,3.600
2024-01-05T11:22:47.701Z,3.800
2024-01-05T11:23:48.026Z,3.900
2024-01-05T11:24:47.646Z,3.600
2024-01-05T11:25:47.221Z,4.600
2024-01-05T11:26:47.508Z,3.800
2024-01-05T11:27:48.453Z,3.700
2024-01-05T11:28:47.785Z,4.200
2024-01-05T11:29:48.105Z,3.600
2024-01-05T11:30:48.239Z,4.000
2024-01-05T11:31:48.553Z,4.200
2024-01-05T11:33:48.941Z,3.900
2024-01-05T11:34:48.342Z,3.800
2024-01-05T11:35:50.679Z,3.900
2024-01-05T11:36:48.171Z,4.000
2024-01-05T11:38:47.735Z,4.300
2024-01-05T11:39:48.764Z,4.100
2024-01-05T11:40:51.068Z,4.400
2024-01-05T11:42:48.561Z,9.000
2024-01-05T11:43:47.867Z,4.700
2024-01-05T11:44:47.192Z,4.500
2024-01-05T11:45:48.366Z,3.900
2024-01-05T11:47:48.087Z,4.500
2024-01-05T11:48:50.358Z,4.700
2024-01-05T11:49:49.051Z,5.500
2024-01-05T11:50:47.459Z,4.700
2024-01-05T11:51:48.176Z,5.000
2024-01-05T11:52:47.469Z,4.100
2024-01-05T11:53:47.890Z,4.800
2024-01-05T11:55:47.849Z,4.400
2024-01-05T11:56:48.105Z,3.600
2024-01-05T11:57:47.570Z,3.700
2024-01-05T11:58:48.549Z,4.200
2024-01-05T11:59:51.692Z,4.400
2024-01-05T12:01:47.400Z,4.600
2024-01-05T12:02:47.719Z,4.500
2024-01-05T12:03:49.397Z,4.100
2024-01-05T12:04:48.450Z,4.500
2024-01-05T12:05:51.070Z,4.500
2024-01-05T12:07:47.404Z,4.000
2024-01-05T12:08:48.550Z,4.400
2024-01-05T12:10:47.277Z,4.400
2024-01-05T12:11:47.489Z,4.500
2024-01-05T12:12:48.585Z,4.500
2024-01-05T12:13:47.970Z,4.500
2024-01-05T12:14:47.167Z,4.100
2024-01-05T12:16:02.822Z,4.300
2024-01-05T12:16:47.816Z,4.500
2024-01-05T12:17:51.339Z,4.300
2024-01-05T12:18:54.411Z,4.200
2024-01-05T12:19:48.413Z,3.900
2024-01-05T12:21:47.675Z,4.000
2024-01-05T12:22:47.984Z,4.200
2024-01-05T12:23:50.367Z,4.700
2024-01-05T12:24:47.895Z,4.700
2024-01-05T12:28:47.968Z,4.200
2024-01-05T12:29:47.283Z,4.300
2024-01-05T12:30:51.903Z,4.300
2024-01-05T12:31:47.615Z,4.500
2024-01-05T12:32:48.191Z,4.500
2024-01-05T12:33:48.836Z,5.000
2024-01-05T12:34:48.630Z,5.600
2024-01-05T12:35:47.945Z,4.300
2024-01-05T12:36:47.407Z,4.400
2024-01-05T12:37:47.821Z,5.100
2024-01-05T12:38:48.120Z,5.200
2024-01-05T12:39:47.644Z,5.700
2024-01-05T12:40:48.030Z,7.100
2024-01-05T12:41:47.577Z,5.200
2024-01-05T12:42:48.295Z,5.400
2024-01-05T12:43:47.633Z,5.500
2024-01-05T12:44:47.928Z,4.900
2024-01-05T12:45:47.601Z,4.500
2024-01-05T12:46:48.559Z,4.500
2024-01-05T12:47:47.874Z,4.800
2024-01-05T12:48:49.028Z,5.200
2024-01-05T12:49:48.379Z,5.200
2024-01-05T12:52:47.852Z,5.400
2024-01-05T12:53:48.102Z,5.900
2024-01-05T12:54:47.749Z,5.000
2024-01-05T12:55:48.100Z,4.600
2024-01-05T12:56:47.317Z,4.300
2024-01-05T12:57:47.839Z,4.500
2024-01-05T12:58:48.561Z,4.500
2024-01-05T12:59:47.816Z,4.700
2024-01-05T13:00:48.564Z,4.600
2024-01-05T13:01:48.071Z,4.800
2024-01-05T13:02:48.407Z,7.000
2024-01-05T13:03:48.267Z,5.500
2024-01-05T13:04:52.863Z,5.700
2024-01-05T13:05:47.373Z,6.200
2024-01-05T13:06:48.276Z,5.300
2024-01-05T13:07:47.708Z,5.600
2024-01-05T13:08:48.008Z,5.300
2024-01-05T13:09:48.010Z,5.100
2024-01-05T13:10:49.359Z,5.100
2024-01-05T13:11:47.588Z,4.800
2024-01-05T13:12:48.225Z,6.000
2024-01-05T13:13:47.655Z,4.800
2024-01-05T13:14:47.179Z,4.900
2024-01-05T13:15:47.749Z,4.900
2024-01-05T13:16:48.193Z,5.200
2024-01-05T13:17:47.488Z,5.100
2024-01-05T13:18:49.269Z,5.000
2024-01-05T13:19:48.924Z,5.400
2024-01-05T13:20:47.183Z,4.500
2024-01-05T13:21:47.862Z,4.800
2024-01-05T13:22:47.348Z,5.100
2024-01-05T13:23:48.469Z,4.800
2024-01-05T13:24:53.076Z,5.400
2024-01-05T13:25:47.886Z,5.100
2024-01-05T13:27:47.882Z,5.300
2024-01-05T13:28:47.992Z,5.200
2024-01-05T13:29:47.362Z,4.600
2024-01-05T13:30:48.393Z,5.700
2024-01-05T13:31:48.987Z,5.100
2024-01-05T13:33:48.559Z,5.100
2024-01-05T13:34:49.162Z,5.300
2024-01-05T13:35:47.680Z,5.500
2024-01-05T13:36:48.235Z,5.500
2024-01-05T13:37:47.543Z,5.100
2024-01-05T13:38:47.827Z,5.400
2024-01-05T13:39:48.828Z,5.300
2024-01-05T13:40:47.083Z,5.800
2024-01-05T13:41:47.343Z,8.800
2024-01-05T13:42:48.071Z,7.400
2024-01-05T13:43:47.408Z,9.400
2024-01-05T13:44:47.740Z,8.500
2024-01-05T13:45:48.236Z,6.700
2024-01-05T13:46:47.657Z,6.500
2024-01-05T13:47:48.350Z,6.300
2024-01-05T13:48:48.173Z,5.000
2024-01-05T13:49:47.940Z,6.200
2024-01-05T13:50:47.272Z,9.200
2024-01-05T13:51:47.675Z,9.500
2024-01-05T13:52:47.944Z,8.200
2024-01-05T13:53:47.329Z,9.100
2024-01-05T13:54:50.316Z,8.500
2024-01-05T13:57:47.696Z,6.800
2024-01-05T13:58:48.284Z,8.200
2024-01-05T13:59:47.502Z,8.000
2024-01-05T14:00:48.631Z,6.400
2024-01-05T14:01:49.584Z,9.700
2024-01-05T14:02:48.001Z,9.500
2024-01-05T14:03:47.575Z,7.800
2024-01-05T14:04:47.950Z,5.600
2024-01-05T14:07:47.698Z,6.200
2024-01-05T14:08:48.002Z,8.200
2024-01-05T14:09:47.427Z,9.000